sensor_id;sensor_type;location;lat;lon;timestamp;pressure;altitude;pressure_sealevel;temperature;humidity
64886;BME280;51514;52.206;5.114;2023-04-28T00:00:49;101481.41;;;10.48;52.09
64886;BME280;51514;52.206;5.114;2023-04-28T00:03:14;101471.16;;;10.52;51.90
64886;BME280;51514;52.206;5.114;2023-04-28T00:05:40;101469.19;;;10.54;51.70
64886;BME280;51514;52.206;5.114;2023-04-28T00:08:06;101455.56;;;10.55;51.50
64886;BME280;51514;52.206;5.114;2023-04-28T00:10:31;101449.88;;;10.58;51.61
64886;BME280;51514;52.206;5.114;2023-04-28T00:12:56;101444.50;;;10.58;51.48
64886;BME280;51514;52.206;5.114;2023-04-28T00:15:22;101432.28;;;10.54;50.99
64886;BME280;51514;52.206;5.114;2023-04-28T00:17:47;101441.09;;;10.56;51.03
64886;BME280;51514;52.206;5.114;2023-04-28T00:20:13;101435.84;;;10.55;51.18
64886;BME280;51514;52.206;5.114;2023-04-28T00:22:38;101439.09;;;10.58;51.04
64886;BME280;51514;52.206;5.114;2023-04-28T00:25:04;101433.41;;;10.61;51.02
64886;BME280;51514;52.206;5.114;2023-04-28T00:27:31;101421.47;;;10.64;51.12
64886;BME280;51514;52.206;5.114;2023-04-28T00:29:57;101428.56;;;10.65;50.50
64886;BME280;51514;52.206;5.114;2023-04-28T00:32:22;101422.63;;;10.61;50.28
64886;BME280;51514;52.206;5.114;2023-04-28T00:34:47;101426.72;;;10.66;50.60
64886;BME280;51514;52.206;5.114;2023-04-28T00:37:13;101419.50;;;10.66;50.18
64886;BME280;51514;52.206;5.114;2023-04-28T00:39:38;101419.34;;;10.68;50.15
64886;BME280;51514;52.206;5.114;2023-04-28T00:42:05;101412.97;;;10.69;49.97
64886;BME280;51514;52.206;5.114;2023-04-28T00:44:31;101411.25;;;10.68;50.13
64886;BME280;51514;52.206;5.114;2023-04-28T00:46:57;101414.94;;;10.67;50.39
64886;BME280;51514;52.206;5.114;2023-04-28T00:49:24;101415.09;;;10.65;50.10
64886;BME280;51514;52.206;5.114;2023-04-28T00:51:49;101412.69;;;10.62;49.95
64886;BME280;51514;52.206;5.114;2023-04-28T00:54:15;101401.03;;;10.61;50.06
64886;BME280;51514;52.206;5.114;2023-04-28T00:56:42;101398.19;;;10.63;50.53
64886;BME280;51514;52.206;5.114;2023-04-28T00:59:07;101395.38;;;10.65;50.59
64886;BME280;51514;52.206;5.114;2023-04-28T01:01:34;101378.19;;;10.66;51.43
64886;BME280;51514;52.206;5.114;2023-04-28T01:03:59;101373.78;;;10.65;50.78
64886;BME280;51514;52.206;5.114;2023-04-28T01:06:26;101374.06;;;10.61;50.94
64886;BME280;51514;52.206;5.114;2023-04-28T01:08:53;101378.75;;;10.69;51.16
64886;BME280;51514;52.206;5.114;2023-04-28T01:11:18;101374.06;;;10.61;50.47
64886;BME280;51514;52.206;5.114;2023-04-28T01:13:43;101383.88;;;10.63;51.04
64886;BME280;51514;52.206;5.114;2023-04-28T01:16:09;101377.63;;;10.62;51.33
64886;BME280;51514;52.206;5.114;2023-04-28T01:18:35;101380.19;;;10.64;50.84
64886;BME280;51514;52.206;5.114;2023-04-28T01:21:01;101368.41;;;10.65;50.83
64886;BME280;51514;52.206;5.114;2023-04-28T01:23:28;101371.94;;;10.65;50.38
64886;BME280;51514;52.206;5.114;2023-04-28T01:25:53;101370.69;;;10.59;50.45
64886;BME280;51514;52.206;5.114;2023-04-28T01:28:18;101371.53;;;10.60;50.62
64886;BME280;51514;52.206;5.114;2023-04-28T01:30:44;101372.13;;;10.54;50.84
64886;BME280;51514;52.206;5.114;2023-04-28T01:33:09;101354.50;;;10.50;50.62
64886;BME280;51514;52.206;5.114;2023-04-28T01:35:35;101358.38;;;10.47;50.72
64886;BME280;51514;52.206;5.114;2023-04-28T01:38:00;101336.81;;;10.47;50.62
64886;BME280;51514;52.206;5.114;2023-04-28T01:40:26;101341.22;;;10.48;50.96
64886;BME280;51514;52.206;5.114;2023-04-28T01:42:51;101341.63;;;10.44;50.55
64886;BME280;51514;52.206;5.114;2023-04-28T01:45:17;101343.09;;;10.38;50.87
64886;BME280;51514;52.206;5.114;2023-04-28T01:47:42;101337.69;;;10.38;50.92
64886;BME280;51514;52.206;5.114;2023-04-28T01:50:07;101339.66;;;10.36;51.04
64886;BME280;51514;52.206;5.114;2023-04-28T01:52:33;101335.81;;;10.39;50.72
64886;BME280;51514;52.206;5.114;2023-04-28T01:54:58;101335.00;;;10.38;50.56
64886;BME280;51514;52.206;5.114;2023-04-28T01:57:24;101324.34;;;10.37;50.94
64886;BME280;51514;52.206;5.114;2023-04-28T01:59:50;101326.91;;;10.38;51.02
64886;BME280;51514;52.206;5.114;2023-04-28T02:02:15;101327.31;;;10.43;51.23
64886;BME280;51514;52.206;5.114;2023-04-28T02:04:40;101321.19;;;10.41;51.12
64886;BME280;51514;52.206;5.114;2023-04-28T02:07:06;101325.59;;;10.42;51.10
64886;BME280;51514;52.206;5.114;2023-04-28T02:09:32;101321.78;;;10.35;51.12
64886;BME280;51514;52.206;5.114;2023-04-28T02:11:57;101313.13;;;10.32;51.82
64886;BME280;51514;52.206;5.114;2023-04-28T02:14:24;101314.28;;;10.29;51.92
64886;BME280;51514;52.206;5.114;2023-04-28T02:16:49;101308.88;;;10.29;52.38
64886;BME280;51514;52.206;5.114;2023-04-28T02:19:15;101307.34;;;10.27;52.50
64886;BME280;51514;52.206;5.114;2023-04-28T02:21:41;101303.94;;;10.24;52.80
64886;BME280;51514;52.206;5.114;2023-04-28T02:24:07;101304.09;;;10.23;52.61
64886;BME280;51514;52.206;5.114;2023-04-28T02:26:32;101303.94;;;10.24;52.66
64886;BME280;51514;52.206;5.114;2023-04-28T02:28:58;101302.97;;;10.26;52.69
64886;BME280;51514;52.206;5.114;2023-04-28T02:31:23;101301.53;;;10.21;52.91
64886;BME280;51514;52.206;5.114;2023-04-28T02:33:48;101294.31;;;10.22;52.83
64886;BME280;51514;52.206;5.114;2023-04-28T02:36:14;101293.84;;;10.17;53.17
64886;BME280;51514;52.206;5.114;2023-04-28T02:38:39;101295.72;;;10.16;53.17
64886;BME280;51514;52.206;5.114;2023-04-28T02:41:06;101291.16;;;10.17;53.55
64886;BME280;51514;52.206;5.114;2023-04-28T02:43:41;101279.69;;;10.15;53.89
64886;BME280;51514;52.206;5.114;2023-04-28T02:46:07;101285.34;;;10.12;54.33
64886;BME280;51514;52.206;5.114;2023-04-28T02:48:33;101286.78;;;10.16;53.90
64886;BME280;51514;52.206;5.114;2023-04-28T02:51:01;101278.69;;;10.16;53.87
64886;BME280;51514;52.206;5.114;2023-04-28T02:53:27;101271.47;;;10.16;54.21
64886;BME280;51514;52.206;5.114;2023-04-28T02:55:52;101271.03;;;10.11;54.42
64886;BME280;51514;52.206;5.114;2023-04-28T02:58:18;101263.22;;;10.08;54.77
64886;BME280;51514;52.206;5.114;2023-04-28T03:00:44;101255.00;;;10.10;54.79
64886;BME280;51514;52.206;5.114;2023-04-28T03:03:10;101243.13;;;10.03;55.34
64886;BME280;51514;52.206;5.114;2023-04-28T03:05:35;101235.63;;;9.97;55.57
64886;BME280;51514;52.206;5.114;2023-04-28T03:08:01;101235.47;;;9.98;55.56
64886;BME280;51514;52.206;5.114;2023-04-28T03:10:26;101240.31;;;9.95;55.61
64886;BME280;51514;52.206;5.114;2023-04-28T03:12:52;101232.91;;;9.97;56.04
64886;BME280;51514;52.206;5.114;2023-04-28T03:15:17;101239.47;;;9.94;55.76
64886;BME280;51514;52.206;5.114;2023-04-28T03:17:42;101234.81;;;9.77;56.39
64886;BME280;51514;52.206;5.114;2023-04-28T03:20:08;101227.00;;;9.74;58.22
64886;BME280;51514;52.206;5.114;2023-04-28T03:22:34;101216.22;;;9.74;57.42
64886;BME280;51514;52.206;5.114;2023-04-28T03:25:00;101206.19;;;9.66;57.46
64886;BME280;51514;52.206;5.114;2023-04-28T03:27:26;101207.75;;;9.69;57.47
64886;BME280;51514;52.206;5.114;2023-04-28T03:29:51;101204.22;;;9.68;57.33
64886;BME280;51514;52.206;5.114;2023-04-28T03:32:17;101203.50;;;9.66;57.06
64886;BME280;51514;52.206;5.114;2023-04-28T03:34:42;101199.69;;;9.69;57.54
64886;BME280;51514;52.206;5.114;2023-04-28T03:37:07;101198.22;;;9.74;57.58
64886;BME280;51514;52.206;5.114;2023-04-28T03:39:33;101195.97;;;9.79;57.83
64886;BME280;51514;52.206;5.114;2023-04-28T03:41:58;101188.75;;;9.80;57.04
64886;BME280;51514;52.206;5.114;2023-04-28T03:44:23;101195.25;;;9.77;57.05
64886;BME280;51514;52.206;5.114;2023-04-28T03:46:49;101192.16;;;9.82;57.40
64886;BME280;51514;52.206;5.114;2023-04-28T03:49:15;101181.38;;;9.82;57.12
64886;BME280;51514;52.206;5.114;2023-04-28T03:51:40;101181.22;;;9.83;57.38
64886;BME280;51514;52.206;5.114;2023-04-28T03:54:06;101174.00;;;9.84;56.78
64886;BME280;51514;52.206;5.114;2023-04-28T03:56:31;101182.91;;;9.84;56.85
64886;BME280;51514;52.206;5.114;2023-04-28T03:58:57;101176.97;;;9.81;57.14
64886;BME280;51514;52.206;5.114;2023-04-28T04:01:22;101181.38;;;9.82;57.09
64886;BME280;51514;52.206;5.114;2023-04-28T04:03:48;101178.22;;;9.86;57.04
64886;BME280;51514;52.206;5.114;2023-04-28T04:06:13;101175.38;;;9.88;56.82
64886;BME280;51514;52.206;5.114;2023-04-28T04:08:39;101175.53;;;9.86;56.86
64886;BME280;51514;52.206;5.114;2023-04-28T04:11:04;101172.56;;;9.89;56.60
64886;BME280;51514;52.206;5.114;2023-04-28T04:13:30;101165.47;;;9.88;56.29
64886;BME280;51514;52.206;5.114;2023-04-28T04:15:55;101167.16;;;9.89;56.47
64886;BME280;51514;52.206;5.114;2023-04-28T04:18:20;101165.47;;;9.88;56.64
64886;BME280;51514;52.206;5.114;2023-04-28T04:20:46;101156.81;;;9.85;56.71
64886;BME280;51514;52.206;5.114;2023-04-28T04:23:11;101158.09;;;9.91;56.87
64886;BME280;51514;52.206;5.114;2023-04-28T04:25:36;101163.19;;;9.94;56.78
64886;BME280;51514;52.206;5.114;2023-04-28T04:28:02;101165.19;;;9.92;56.72
64886;BME280;51514;52.206;5.114;2023-04-28T04:30:27;101157.09;;;9.92;56.66
64886;BME280;51514;52.206;5.114;2023-04-28T04:32:53;101168.59;;;9.94;56.71
64886;BME280;51514;52.206;5.114;2023-04-28T04:35:18;101149.41;;;9.97;56.54
64886;BME280;51514;52.206;5.114;2023-04-28T04:37:43;101152.09;;;9.97;56.66
64886;BME280;51514;52.206;5.114;2023-04-28T04:40:09;101145.28;;;10.02;56.65
64886;BME280;51514;52.206;5.114;2023-04-28T04:42:34;101142.47;;;10.04;56.47
64886;BME280;51514;52.206;5.114;2023-04-28T04:45:00;101146.16;;;10.03;56.36
64886;BME280;51514;52.206;5.114;2023-04-28T04:47:25;101143.44;;;10.03;56.43
64886;BME280;51514;52.206;5.114;2023-04-28T04:49:51;101132.78;;;10.11;56.25
64886;BME280;51514;52.206;5.114;2023-04-28T04:52:17;101128.78;;;10.15;56.56
64886;BME280;51514;52.206;5.114;2023-04-28T04:54:43;101135.88;;;10.16;56.47
64886;BME280;51514;52.206;5.114;2023-04-28T04:57:08;101131.91;;;10.20;56.56
64886;BME280;51514;52.206;5.114;2023-04-28T04:59:34;101128.22;;;10.21;56.16
64886;BME280;51514;52.206;5.114;2023-04-28T05:01:59;101127.63;;;10.27;56.48
64886;BME280;51514;52.206;5.114;2023-04-28T05:04:25;101125.94;;;10.26;56.19
64886;BME280;51514;52.206;5.114;2023-04-28T05:06:50;101124.75;;;10.29;56.66
64886;BME280;51514;52.206;5.114;2023-04-28T05:09:16;101133.19;;;10.26;56.46
64886;BME280;51514;52.206;5.114;2023-04-28T05:11:42;101131.63;;;10.23;56.44
64886;BME280;51514;52.206;5.114;2023-04-28T05:14:07;101141.25;;;10.26;56.62
64886;BME280;51514;52.206;5.114;2023-04-28T05:16:32;101146.94;;;10.22;56.63
64886;BME280;51514;52.206;5.114;2023-04-28T05:18:58;101148.50;;;10.25;56.58
64886;BME280;51514;52.206;5.114;2023-04-28T05:21:23;101158.28;;;10.26;56.99
64886;BME280;51514;52.206;5.114;2023-04-28T05:23:49;101161.34;;;10.31;57.47
64886;BME280;51514;52.206;5.114;2023-04-28T05:26:14;101153.84;;;10.35;58.82
64886;BME280;51514;52.206;5.114;2023-04-28T05:28:40;101157.38;;;10.35;61.56
64886;BME280;51514;52.206;5.114;2023-04-28T05:31:06;101160.59;;;10.39;63.53
64886;BME280;51514;52.206;5.114;2023-04-28T05:33:32;101145.75;;;10.35;63.82
64886;BME280;51514;52.206;5.114;2023-04-28T05:35:57;101138.41;;;10.27;65.80
64886;BME280;51514;52.206;5.114;2023-04-28T05:38:23;101133.91;;;10.18;65.67
64886;BME280;51514;52.206;5.114;2023-04-28T05:40:48;101128.38;;;10.10;66.90
64886;BME280;51514;52.206;5.114;2023-04-28T05:43:14;101126.59;;;10.01;68.00
64886;BME280;51514;52.206;5.114;2023-04-28T05:45:39;101134.25;;;9.96;69.63
64886;BME280;51514;52.206;5.114;2023-04-28T05:48:04;101117.41;;;9.94;69.96
64886;BME280;51514;52.206;5.114;2023-04-28T05:50:30;101109.75;;;9.89;71.60
64886;BME280;51514;52.206;5.114;2023-04-28T05:52:56;101117.00;;;9.88;71.89
64886;BME280;51514;52.206;5.114;2023-04-28T05:55:21;101106.50;;;9.85;72.03
64886;BME280;51514;52.206;5.114;2023-04-28T05:57:47;101093.22;;;9.84;72.99
64886;BME280;51514;52.206;5.114;2023-04-28T06:00:13;101084.00;;;9.77;74.19
64886;BME280;51514;52.206;5.114;2023-04-28T06:02:38;101075.41;;;9.73;75.55
64886;BME280;51514;52.206;5.114;2023-04-28T06:05:04;101064.63;;;9.64;75.84
64886;BME280;51514;52.206;5.114;2023-04-28T06:07:29;101064.09;;;9.60;76.55
64886;BME280;51514;52.206;5.114;2023-04-28T06:09:55;101075.44;;;9.54;76.33
64886;BME280;51514;52.206;5.114;2023-04-28T06:12:20;101074.59;;;9.53;75.98
64886;BME280;51514;52.206;5.114;2023-04-28T06:14:45;101080.28;;;9.50;76.63
64886;BME280;51514;52.206;5.114;2023-04-28T06:17:11;101080.25;;;9.60;76.69
64886;BME280;51514;52.206;5.114;2023-04-28T06:19:36;101092.69;;;9.71;76.71
64886;BME280;51514;52.206;5.114;2023-04-28T06:22:01;101098.91;;;9.71;76.99
64886;BME280;51514;52.206;5.114;2023-04-28T06:24:26;101086.00;;;9.75;76.22
64886;BME280;51514;52.206;5.114;2023-04-28T06:26:52;101094.63;;;9.78;75.54
64886;BME280;51514;52.206;5.114;2023-04-28T06:29:17;101104.13;;;9.82;75.85
64886;BME280;51514;52.206;5.114;2023-04-28T06:31:44;101106.50;;;9.85;75.76
64886;BME280;51514;52.206;5.114;2023-04-28T06:34:10;101103.22;;;9.92;75.89
64886;BME280;51514;52.206;5.114;2023-04-28T06:36:35;101111.84;;;9.95;75.47
64886;BME280;51514;52.206;5.114;2023-04-28T06:39:00;101110.41;;;10.01;75.98
64886;BME280;51514;52.206;5.114;2023-04-28T06:41:26;101111.22;;;10.11;75.62
64886;BME280;51514;52.206;5.114;2023-04-28T06:43:53;101101.28;;;10.21;75.59
64886;BME280;51514;52.206;5.114;2023-04-28T06:46:18;101092.75;;;10.26;75.69
64886;BME280;51514;52.206;5.114;2023-04-28T06:48:44;101091.00;;;10.34;75.74
64886;BME280;51514;52.206;5.114;2023-04-28T06:51:09;101094.91;;;10.40;76.28
64886;BME280;51514;52.206;5.114;2023-04-28T06:53:35;101079.00;;;10.46;76.45
64886;BME280;51514;52.206;5.114;2023-04-28T06:56:01;101089.16;;;10.52;76.86
64886;BME280;51514;52.206;5.114;2023-04-28T06:58:27;101096.25;;;10.53;76.64
64886;BME280;51514;52.206;5.114;2023-04-28T07:00:52;101092.56;;;10.54;76.77
64886;BME280;51514;52.206;5.114;2023-04-28T07:03:18;101095.47;;;10.61;77.42
64886;BME280;51514;52.206;5.114;2023-04-28T07:05:43;101094.19;;;10.65;77.29
64886;BME280;51514;52.206;5.114;2023-04-28T07:08:08;101101.13;;;10.68;77.75
64886;BME280;51514;52.206;5.114;2023-04-28T07:10:34;101093.75;;;10.70;77.98
64886;BME280;51514;52.206;5.114;2023-04-28T07:12:59;101095.09;;;10.74;78.35
64886;BME280;51514;52.206;5.114;2023-04-28T07:15:24;101086.72;;;10.77;79.38
64886;BME280;51514;52.206;5.114;2023-04-28T07:17:50;101086.41;;;10.80;79.50
64886;BME280;51514;52.206;5.114;2023-04-28T07:20:15;101087.78;;;10.84;79.07
64886;BME280;51514;52.206;5.114;2023-04-28T07:22:41;101081.63;;;10.91;79.26
64886;BME280;51514;52.206;5.114;2023-04-28T07:25:07;101089.41;;;10.94;80.00
64886;BME280;51514;52.206;5.114;2023-04-28T07:27:32;101081.53;;;11.01;80.21
64886;BME280;51514;52.206;5.114;2023-04-28T07:29:58;101076.34;;;11.08;81.19
64886;BME280;51514;52.206;5.114;2023-04-28T07:32:23;101065.25;;;11.11;81.51
64886;BME280;51514;52.206;5.114;2023-04-28T07:34:48;101074.22;;;11.11;80.59
64886;BME280;51514;52.206;5.114;2023-04-28T07:37:15;101081.31;;;11.12;81.52
64886;BME280;51514;52.206;5.114;2023-04-28T07:39:40;101077.25;;;11.16;81.31
64886;BME280;51514;52.206;5.114;2023-04-28T07:42:06;101073.41;;;11.19;81.94
64886;BME280;51514;52.206;5.114;2023-04-28T07:44:31;101080.34;;;11.21;82.53
64886;BME280;51514;52.206;5.114;2023-04-28T07:46:58;101071.63;;;11.27;82.52
64886;BME280;51514;52.206;5.114;2023-04-28T07:49:28;101066.59;;;11.32;82.75
64886;BME280;51514;52.206;5.114;2023-04-28T07:51:54;101076.75;;;11.39;83.73
64886;BME280;51514;52.206;5.114;2023-04-28T07:54:20;101064.50;;;11.44;83.61
64886;BME280;51514;52.206;5.114;2023-04-28T07:56:46;101062.84;;;11.51;84.50
64886;BME280;51514;52.206;5.114;2023-04-28T07:59:11;101069.25;;;11.50;85.06
64886;BME280;51514;52.206;5.114;2023-04-28T08:01:37;101060.69;;;11.55;84.23
64886;BME280;51514;52.206;5.114;2023-04-28T08:04:02;101074.53;;;11.60;84.39
64886;BME280;51514;52.206;5.114;2023-04-28T08:06:27;101073.06;;;11.65;84.65
64886;BME280;51514;52.206;5.114;2023-04-28T08:08:53;101058.22;;;11.69;85.10
64886;BME280;51514;52.206;5.114;2023-04-28T08:11:19;101064.00;;;11.75;85.40
64886;BME280;51514;52.206;5.114;2023-04-28T08:13:45;101062.69;;;11.79;85.94
64886;BME280;51514;52.206;5.114;2023-04-28T08:16:11;101062.34;;;11.82;86.17
64886;BME280;51514;52.206;5.114;2023-04-28T08:18:37;101062.88;;;11.85;86.30
64886;BME280;51514;52.206;5.114;2023-04-28T08:21:03;101064.94;;;11.91;87.08
64886;BME280;51514;52.206;5.114;2023-04-28T08:23:29;101063.59;;;11.95;86.93
64886;BME280;51514;52.206;5.114;2023-04-28T08:25:56;101067.69;;;11.99;87.96
64886;BME280;51514;52.206;5.114;2023-04-28T08:28:21;101069.72;;;12.05;88.38
64886;BME280;51514;52.206;5.114;2023-04-28T08:30:46;101071.44;;;12.06;90.74
64886;BME280;51514;52.206;5.114;2023-04-28T08:33:12;101068.88;;;12.05;91.25
64886;BME280;51514;52.206;5.114;2023-04-28T08:35:37;101069.72;;;12.05;92.64
64886;BME280;51514;52.206;5.114;2023-04-28T08:38:03;101075.13;;;12.05;93.57
64886;BME280;51514;52.206;5.114;2023-04-28T08:40:29;101072.59;;;12.04;93.69
64886;BME280;51514;52.206;5.114;2023-04-28T08:42:55;101072.25;;;11.99;94.06
64886;BME280;51514;52.206;5.114;2023-04-28T08:45:23;101065.66;;;12.01;95.43
64886;BME280;51514;52.206;5.114;2023-04-28T08:47:48;101071.75;;;12.03;94.77
64886;BME280;51514;52.206;5.114;2023-04-28T08:50:22;101065.34;;;12.04;95.69
64886;BME280;51514;52.206;5.114;2023-04-28T08:52:51;101063.47;;;12.05;96.67
64886;BME280;51514;52.206;5.114;2023-04-28T08:55:17;101059.75;;;11.98;96.62
64886;BME280;51514;52.206;5.114;2023-04-28T08:57:44;101061.59;;;11.97;97.27
64886;BME280;51514;52.206;5.114;2023-04-28T09:00:11;101056.22;;;12.05;97.11
64886;BME280;51514;52.206;5.114;2023-04-28T09:02:36;101061.16;;;12.10;98.32
64886;BME280;51514;52.206;5.114;2023-04-28T09:05:09;101062.34;;;12.16;98.63
64886;BME280;51514;52.206;5.114;2023-04-28T09:07:35;101055.22;;;12.15;99.25
64886;BME280;51514;52.206;5.114;2023-04-28T09:10:16;101053.38;;;12.15;99.39
64886;BME280;51514;52.206;5.114;2023-04-28T09:12:43;101052.75;;;12.21;98.96
64886;BME280;51514;52.206;5.114;2023-04-28T09:15:08;101050.88;;;12.22;99.93
64886;BME280;51514;52.206;5.114;2023-04-28T09:17:47;101064.56;;;12.20;100.00
64886;BME280;51514;52.206;5.114;2023-04-28T09:20:27;101053.22;;;12.25;100.00
64886;BME280;51514;52.206;5.114;2023-04-28T09:22:56;101056.31;;;12.30;100.00
64886;BME280;51514;52.206;5.114;2023-04-28T09:25:36;101055.97;;;12.33;100.00
64886;BME280;51514;52.206;5.114;2023-04-28T09:28:18;101050.56;;;12.33;100.00
64886;BME280;51514;52.206;5.114;2023-04-28T09:30:44;101063.41;;;12.31;100.00
64886;BME280;51514;52.206;5.114;2023-04-28T09:33:09;101046.50;;;12.29;100.00
64886;BME280;51514;52.206;5.114;2023-04-28T09:35:39;101046.19;;;12.32;100.00
64886;BME280;51514;52.206;5.114;2023-04-28T09:38:05;101048.03;;;12.39;100.00
64886;BME280;51514;52.206;5.114;2023-04-28T09:40:30;101042.97;;;12.44;100.00
64886;BME280;51514;52.206;5.114;2023-04-28T09:42:56;101046.19;;;12.48;100.00
64886;BME280;51514;52.206;5.114;2023-04-28T09:45:22;101049.44;;;12.52;100.00
64886;BME280;51514;52.206;5.114;2023-04-28T09:47:48;101042.84;;;12.54;100.00
64886;BME280;51514;52.206;5.114;2023-04-28T09:50:15;101044.19;;;12.58;100.00
64886;BME280;51514;52.206;5.114;2023-04-28T09:52:41;101050.75;;;12.56;100.00
64886;BME280;51514;52.206;5.114;2023-04-28T09:55:10;101039.78;;;12.57;100.00
64886;BME280;51514;52.206;5.114;2023-04-28T09:57:36;101039.78;;;12.57;100.00
64886;BME280;51514;52.206;5.114;2023-04-28T10:00:03;101040.47;;;12.59;100.00
64886;BME280;51514;52.206;5.114;2023-04-28T10:02:34;101041.47;;;12.66;100.00
64886;BME280;51514;52.206;5.114;2023-04-28T10:05:00;101037.44;;;12.70;100.00
64886;BME280;51514;52.206;5.114;2023-04-28T10:07:26;101043.84;;;12.77;100.00
64886;BME280;51514;52.206;5.114;2023-04-28T10:09:52;101039.13;;;12.79;100.00
64886;BME280;51514;52.206;5.114;2023-04-28T10:12:22;101043.69;;;12.79;100.00
64886;BME280;51514;52.206;5.114;2023-04-28T10:14:49;101039.50;;;12.85;100.00
64886;BME280;51514;52.206;5.114;2023-04-28T10:17:19;101046.59;;;12.86;100.00
64886;BME280;51514;52.206;5.114;2023-04-28T10:19:47;101039.50;;;12.85;100.00
64886;BME280;51514;52.206;5.114;2023-04-28T10:27:29;101043.56;;;12.97;100.00
64886;BME280;51514;52.206;5.114;2023-04-28T10:32:36;101042.34;;;13.07;100.00
64886;BME280;51514;52.206;5.114;2023-04-28T10:40:51;101036.78;;;13.17;100.00
64886;BME280;51514;52.206;5.114;2023-04-28T10:48:18;101043.19;;;13.40;100.00
64886;BME280;51514;52.206;5.114;2023-04-28T10:56:09;101040.44;;;13.57;100.00
64886;BME280;51514;52.206;5.114;2023-04-28T10:58:35;101045.53;;;13.60;100.00
64886;BME280;51514;52.206;5.114;2023-04-28T11:01:29;101048.91;;;13.62;100.00
64886;BME280;51514;52.206;5.114;2023-04-28T11:06:28;101042.06;;;13.74;100.00
64886;BME280;51514;52.206;5.114;2023-04-28T11:08:59;101041.88;;;13.83;100.00
64886;BME280;51514;52.206;5.114;2023-04-28T11:11:26;101038.28;;;13.91;100.00
64886;BME280;51514;52.206;5.114;2023-04-28T11:13:54;101032.84;;;13.99;100.00
64886;BME280;51514;52.206;5.114;2023-04-28T11:16:22;101027.56;;;14.06;100.00
64886;BME280;51514;52.206;5.114;2023-04-28T11:19:01;101030.28;;;14.06;100.00
64886;BME280;51514;52.206;5.114;2023-04-28T11:21:29;101019.91;;;14.09;100.00
64886;BME280;51514;52.206;5.114;2023-04-28T11:23:56;101024.97;;;14.12;100.00
64886;BME280;51514;52.206;5.114;2023-04-28T11:26:21;101027.13;;;14.17;100.00
64886;BME280;51514;52.206;5.114;2023-04-28T11:28:49;101022.88;;;14.22;100.00
64886;BME280;51514;52.206;5.114;2023-04-28T11:31:16;101022.53;;;14.25;100.00
64886;BME280;51514;52.206;5.114;2023-04-28T11:33:45;101025.25;;;14.25;100.00
64886;BME280;51514;52.206;5.114;2023-04-28T11:38:56;101027.91;;;14.34;100.00
64886;BME280;51514;52.206;5.114;2023-04-28T11:41:22;101028.41;;;14.37;100.00
64886;BME280;51514;52.206;5.114;2023-04-28T11:43:47;101027.38;;;14.38;100.00
64886;BME280;51514;52.206;5.114;2023-04-28T11:46:17;101031.78;;;14.39;100.00
64886;BME280;51514;52.206;5.114;2023-04-28T11:48:43;101031.44;;;14.42;100.00
64886;BME280;51514;52.206;5.114;2023-04-28T11:51:08;101029.22;;;14.46;100.00
64886;BME280;51514;52.206;5.114;2023-04-28T11:53:41;101037.00;;;14.49;100.00
64886;BME280;51514;52.206;5.114;2023-04-28T11:56:07;101029.91;;;14.48;100.00
64886;BME280;51514;52.206;5.114;2023-04-28T11:58:33;101035.66;;;14.45;100.00
64886;BME280;51514;52.206;5.114;2023-04-28T12:01:11;101037.72;;;14.43;100.00
64886;BME280;51514;52.206;5.114;2023-04-28T12:03:56;101037.72;;;14.43;100.00
64886;BME280;51514;52.206;5.114;2023-04-28T12:06:21;101042.78;;;14.46;100.00
64886;BME280;51514;52.206;5.114;2023-04-28T12:08:47;101041.59;;;14.48;100.00
64886;BME280;51514;52.206;5.114;2023-04-28T12:11:13;101044.47;;;14.47;100.00
64886;BME280;51514;52.206;5.114;2023-04-28T12:13:40;101039.91;;;14.47;100.00
64886;BME280;51514;52.206;5.114;2023-04-28T12:16:06;101047.03;;;14.48;100.00
64886;BME280;51514;52.206;5.114;2023-04-28T12:18:33;101048.16;;;14.54;100.00
64886;BME280;51514;52.206;5.114;2023-04-28T12:20:58;101045.09;;;14.57;100.00
64886;BME280;51514;52.206;5.114;2023-04-28T12:23:32;101057.63;;;14.58;100.00
64886;BME280;51514;52.206;5.114;2023-04-28T12:25:57;101052.88;;;14.60;100.00
64886;BME280;51514;52.206;5.114;2023-04-28T12:28:35;101050.34;;;14.58;100.00
64886;BME280;51514;52.206;5.114;2023-04-28T12:31:03;101046.41;;;14.61;100.00
64886;BME280;51514;52.206;5.114;2023-04-28T12:33:29;101057.25;;;14.61;100.00
64886;BME280;51514;52.206;5.114;2023-04-28T12:35:55;101053.53;;;14.62;100.00
64886;BME280;51514;52.206;5.114;2023-04-28T12:38:24;101057.09;;;14.63;100.00
64886;BME280;51514;52.206;5.114;2023-04-28T12:40:50;101055.22;;;14.63;100.00
64886;BME280;51514;52.206;5.114;2023-04-28T12:43:16;101054.00;;;14.66;100.00
64886;BME280;51514;52.206;5.114;2023-04-28T12:45:41;101059.09;;;14.69;100.00
64886;BME280;51514;52.206;5.114;2023-04-28T12:48:07;101058.34;;;14.75;100.00
64886;BME280;51514;52.206;5.114;2023-04-28T12:50:32;101057.16;;;14.77;100.00
64886;BME280;51514;52.206;5.114;2023-04-28T12:52:58;101052.84;;;14.83;100.00
64886;BME280;51514;52.206;5.114;2023-04-28T12:55:24;101057.44;;;14.82;100.00
64886;BME280;51514;52.206;5.114;2023-04-28T12:57:49;101059.81;;;14.85;100.00
64886;BME280;51514;52.206;5.114;2023-04-28T13:00:15;101051.31;;;14.88;100.00
64886;BME280;51514;52.206;5.114;2023-04-28T13:02:42;101055.72;;;14.89;100.00
64886;BME280;51514;52.206;5.114;2023-04-28T13:05:07;101056.06;;;14.86;100.00
64886;BME280;51514;52.206;5.114;2023-04-28T13:07:33;101053.34;;;14.86;100.00
64886;BME280;51514;52.206;5.114;2023-04-28T13:09:59;101065.22;;;14.85;100.00
64886;BME280;51514;52.206;5.114;2023-04-28T13:12:25;101063.53;;;14.84;100.00
64886;BME280;51514;52.206;5.114;2023-04-28T13:14:50;101070.38;;;14.80;100.00